createdAt,value
2022-09-11T00:01:47.358Z,101701.88
2022-09-11T00:04:15.806Z,101684.31
2022-09-11T00:06:44.262Z,101698.22
2022-09-11T00:09:12.804Z,101702.66
2022-09-11T00:11:43.372Z,101704.38
2022-09-11T00:14:14.002Z,101700.91
2022-09-11T00:16:47.608Z,101702.59
2022-09-11T00:19:18.918Z,101696.59
2022-09-11T00:21:47.600Z,101697.66
2022-09-11T00:24:15.827Z,101702.22
2022-09-11T00:26:44.981Z,101702.97
2022-09-11T00:29:13.280Z,101705.50
2022-09-11T00:31:41.726Z,101698.94
2022-09-11T00:34:11.504Z,101704.31
2022-09-11T00:36:43.184Z,101697.28
2022-09-11T00:39:12.459Z,101665.19
2022-09-11T00:41:44.765Z,101680.88
2022-09-11T00:45:01.348Z,101693.34
2022-09-11T00:47:32.075Z,101692.53
2022-09-11T00:50:12.026Z,101696.03
2022-09-11T00:52:43.373Z,101641.41
2022-09-11T00:55:15.703Z,101675.59
2022-09-11T00:57:53.694Z,101691.34
2022-09-11T01:00:23.282Z,101691.22
2022-09-11T01:02:54.535Z,101694.72
2022-09-11T01:05:26.447Z,101695.66
2022-09-11T01:07:57.169Z,101702.09
2022-09-11T01:10:35.559Z,101702.09
2022-09-11T01:13:11.717Z,101699.44
2022-09-11T01:15:48.351Z,101698.06
2022-09-11T01:18:27.943Z,101675.47
2022-09-11T01:21:34.525Z,101581.56
2022-09-11T01:24:26.316Z,101703.03
2022-09-11T01:27:33.023Z,101700.56
2022-09-11T01:30:09.548Z,101707.28
2022-09-11T01:33:01.782Z,101668.34
2022-09-11T01:35:42.923Z,101700.94
2022-09-11T01:38:18.932Z,101702.59
2022-09-11T01:40:54.617Z,101704.19
2022-09-11T01:43:30.596Z,101706.72
2022-09-11T01:46:02.830Z,101613.13
2022-09-11T01:48:38.406Z,101702.41
2022-09-11T01:51:09.804Z,101694.88
2022-09-11T01:53:40.572Z,101698.72
2022-09-11T01:56:15.788Z,101701.25
2022-09-11T01:58:48.712Z,101658.91
2022-09-11T02:01:22.630Z,101692.53
2022-09-11T02:03:56.756Z,101696.28
2022-09-11T02:06:34.221Z,101704.41
2022-09-11T02:09:07.821Z,101670.44
2022-09-11T02:11:41.964Z,101711.97
2022-09-11T02:14:20.853Z,101711.19
2022-09-11T02:16:52.362Z,101720.28
2022-09-11T02:19:25.116Z,101715.81
2022-09-11T02:21:54.358Z,101718.69
2022-09-11T02:24:23.747Z,101706.19
2022-09-11T02:26:59.153Z,101697.75
2022-09-11T02:29:28.872Z,101721.56
2022-09-11T02:32:00.477Z,101727.03
2022-09-11T02:34:37.904Z,101727.72
2022-09-11T02:37:38.467Z,101693.22
2022-09-11T02:40:20.659Z,101727.72
2022-09-11T02:43:08.664Z,101727.13
2022-09-11T02:45:54.342Z,101719.00
2022-09-11T02:48:45.507Z,101719.19
2022-09-11T02:51:27.154Z,101712.97
2022-09-11T02:54:05.542Z,101725.44
2022-09-11T02:56:42.355Z,101725.47
2022-09-11T02:59:19.193Z,101722.75
2022-09-11T03:01:53.400Z,101725.63
2022-09-11T03:04:25.829Z,101737.34
2022-09-11T03:06:56.723Z,101581.81
2022-09-11T03:09:25.145Z,101722.38
2022-09-11T03:11:57.852Z,101712.09
2022-09-11T03:14:26.160Z,101725.84
2022-09-11T03:16:55.909Z,101732.25
2022-09-11T03:19:25.170Z,101729.69
2022-09-11T03:21:53.396Z,101731.44
2022-09-11T03:24:23.367Z,101733.16
2022-09-11T03:26:51.685Z,101726.81
2022-09-11T03:29:20.039Z,101717.13
2022-09-11T03:31:48.994Z,101723.22
2022-09-11T03:34:19.793Z,101711.69
2022-09-11T03:36:48.903Z,101670.09
2022-09-11T03:39:17.190Z,101729.38
2022-09-11T03:41:45.449Z,101732.97
2022-09-11T03:44:13.716Z,101732.09
2022-09-11T03:46:42.066Z,101657.97
2022-09-11T03:49:10.600Z,101734.47
2022-09-11T03:51:40.255Z,101739.22
2022-09-11T03:54:08.550Z,101730.50
2022-09-11T03:56:37.194Z,101703.25
2022-09-11T03:59:05.829Z,101735.88
2022-09-11T04:01:36.628Z,101735.94
2022-09-11T04:04:05.299Z,101744.84
2022-09-11T04:06:42.524Z,101743.16
2022-09-11T04:09:10.884Z,101684.97
2022-09-11T04:11:40.169Z,101733.38
2022-09-11T04:14:23.504Z,101712.03
2022-09-11T04:16:54.774Z,101698.91
2022-09-11T04:19:23.771Z,101747.56
2022-09-11T04:21:53.426Z,101752.94
2022-09-11T04:24:22.897Z,101744.09
2022-09-11T04:26:51.276Z,101740.63
2022-09-11T04:29:24.204Z,101741.72
2022-09-11T04:31:53.807Z,101741.84
2022-09-11T04:34:26.203Z,101752.00
2022-09-11T04:36:56.399Z,101660.38
2022-09-11T04:39:25.393Z,101747.97
2022-09-11T04:41:54.556Z,101744.72
2022-09-11T04:44:24.148Z,101715.78
2022-09-11T04:46:52.544Z,101750.25
2022-09-11T04:49:21.811Z,101750.25
2022-09-11T04:51:50.638Z,101758.31
2022-09-11T04:54:26.017Z,101703.59
2022-09-11T04:56:54.764Z,101785.72
2022-09-11T04:59:24.340Z,101771.34
2022-09-11T05:02:06.260Z,101761.59
2022-09-11T05:04:38.746Z,101775.16
2022-09-11T05:07:07.102Z,101782.34
2022-09-11T05:09:37.840Z,101783.22
2022-09-11T05:12:07.462Z,101782.22
2022-09-11T05:14:37.984Z,101792.25
2022-09-11T05:17:06.941Z,101779.03
2022-09-11T05:19:40.161Z,101783.41
2022-09-11T05:22:09.164Z,101783.41
2022-09-11T05:24:40.817Z,101790.47
2022-09-11T05:27:09.720Z,101795.78
2022-09-11T05:29:39.714Z,101801.81
2022-09-11T05:32:12.724Z,101796.31
2022-09-11T05:34:42.533Z,101802.63
2022-09-11T05:37:14.174Z,101798.41
2022-09-11T05:39:47.420Z,101795.63
2022-09-11T05:42:17.659Z,101807.09
2022-09-11T05:44:50.619Z,101810.59
2022-09-11T05:47:18.860Z,101805.84
2022-09-11T05:49:50.645Z,101805.75
2022-09-11T05:52:19.203Z,101808.88
2022-09-11T05:54:48.901Z,101813.09
2022-09-11T05:57:17.261Z,101754.47
2022-09-11T05:59:45.495Z,101807.69
2022-09-11T06:02:14.239Z,101789.63
2022-09-11T06:04:48.317Z,101812.22
2022-09-11T06:07:16.621Z,101818.09
2022-09-11T06:09:52.587Z,101808.34
2022-09-11T06:12:21.555Z,101825.31
2022-09-11T06:14:51.044Z,101823.06
2022-09-11T06:17:19.490Z,101763.66
2022-09-11T06:19:48.296Z,101707.72
2022-09-11T06:22:21.660Z,101684.47
2022-09-11T06:24:53.641Z,101819.00
2022-09-11T06:27:22.171Z,101822.97
2022-09-11T06:29:51.769Z,101813.06
2022-09-11T06:32:21.943Z,101820.34
2022-09-11T06:34:50.353Z,101819.47
2022-09-11T06:37:19.292Z,101810.81
2022-09-11T06:39:49.260Z,101824.75
2022-09-11T06:42:31.391Z,101831.81
2022-09-11T06:45:02.567Z,101835.81
2022-09-11T06:47:32.200Z,101829.00
2022-09-11T06:50:00.766Z,101837.06
2022-09-11T06:52:45.060Z,101835.25
2022-09-11T06:55:22.720Z,101839.31
2022-09-11T06:58:02.241Z,101833.34
2022-09-11T07:00:32.668Z,101834.69
2022-09-11T07:03:02.903Z,101850.03
2022-09-11T07:05:32.088Z,101849.25
2022-09-11T07:08:02.806Z,101847.25
2022-09-11T07:10:34.696Z,101854.94
2022-09-11T07:13:05.263Z,101836.84
2022-09-11T07:15:33.878Z,101858.44
2022-09-11T07:18:03.857Z,101857.16
2022-09-11T07:20:32.614Z,101871.75
2022-09-11T07:23:01.027Z,101866.63
2022-09-11T07:25:32.196Z,101869.25
2022-09-11T07:28:00.420Z,101876.00
2022-09-11T07:30:32.504Z,101874.53
2022-09-11T07:33:01.676Z,101879.94
2022-09-11T07:35:31.046Z,101883.53
2022-09-11T07:38:00.082Z,101887.78
2022-09-11T07:40:29.514Z,101877.38
2022-09-11T07:43:00.415Z,101884.16
2022-09-11T07:45:30.660Z,101886.03
2022-09-11T07:48:02.598Z,101887.72
2022-09-11T07:50:32.322Z,101886.44
2022-09-11T07:53:01.626Z,101848.03
2022-09-11T07:55:30.156Z,101882.16
2022-09-11T07:57:58.990Z,101882.81
2022-09-11T08:00:27.441Z,101882.66
2022-09-11T08:03:05.983Z,101885.44
2022-09-11T08:05:37.262Z,101878.94
2022-09-11T08:08:06.524Z,101802.88
2022-09-11T08:10:40.934Z,101886.38
2022-09-11T08:13:09.753Z,101893.66
2022-09-11T08:15:38.927Z,101888.75
2022-09-11T08:18:10.491Z,101886.25
2022-09-11T08:20:38.906Z,101901.72
2022-09-11T08:23:07.265Z,101896.25
2022-09-11T08:25:37.242Z,101893.66
2022-09-11T08:28:06.981Z,101900.84
2022-09-11T08:30:38.222Z,101856.25
2022-09-11T08:33:08.565Z,101916.19
2022-09-11T08:35:39.158Z,101907.81
2022-09-11T08:38:07.585Z,101892.03
2022-09-11T08:40:39.830Z,101913.69
2022-09-11T08:43:21.424Z,101917.09
2022-09-11T08:45:52.311Z,101918.22
2022-09-11T08:48:30.167Z,101920.22
2022-09-11T08:51:00.042Z,101916.25
2022-09-11T08:53:33.027Z,101908.53
2022-09-11T08:56:09.104Z,101916.63
2022-09-11T08:58:50.368Z,101913.47
2022-09-11T09:01:30.444Z,101905.50
2022-09-11T09:04:23.435Z,101914.91
2022-09-11T09:07:06.835Z,101915.50
2022-09-11T09:09:45.454Z,101917.81
2022-09-11T09:12:24.091Z,101920.00
2022-09-11T09:15:20.425Z,101909.28
2022-09-11T09:17:55.495Z,101917.06
2022-09-11T09:20:31.587Z,101925.47
2022-09-11T09:23:05.380Z,101900.94
2022-09-11T09:25:39.326Z,101921.09
2022-09-11T09:28:19.236Z,101915.63
2022-09-11T09:30:53.090Z,101901.91
2022-09-11T09:33:36.186Z,101918.59
2022-09-11T09:36:17.661Z,101944.78
2022-09-11T09:38:49.195Z,101919.47
2022-09-11T09:42:09.812Z,101920.03
2022-09-11T09:45:03.765Z,101922.84
2022-09-11T09:47:32.203Z,101916.50
2022-09-11T09:50:00.829Z,101928.03
2022-09-11T09:52:35.985Z,101931.91
2022-09-11T09:55:12.720Z,101933.53
2022-09-11T09:57:41.022Z,101932.56
2022-09-11T10:00:19.815Z,101928.91
2022-09-11T10:02:50.888Z,101930.66
2022-09-11T10:05:25.556Z,101939.91
2022-09-11T10:07:56.799Z,101934.06
2022-09-11T10:10:32.071Z,101945.09
2022-09-11T10:13:18.540Z,101917.00
2022-09-11T10:15:50.476Z,101931.22
2022-09-11T10:18:43.894Z,101927.38
2022-09-11T10:21:24.064Z,101918.44
2022-09-11T10:23:56.077Z,101927.44
2022-09-11T10:26:30.741Z,101930.06
2022-09-11T10:29:08.120Z,101933.59
2022-09-11T10:31:40.101Z,101928.78
2022-09-11T10:34:15.832Z,101923.91
2022-09-11T10:36:55.007Z,101927.06
2022-09-11T10:39:26.158Z,101911.09
2022-09-11T10:42:00.018Z,101919.38
2022-09-11T10:44:29.698Z,101918.22
2022-09-11T10:47:07.216Z,101917.69
2022-09-11T10:49:36.146Z,101920.41
2022-09-11T10:52:18.781Z,101914.00
2022-09-11T10:55:00.108Z,101910.69
2022-09-11T10:57:35.955Z,101916.69
2022-09-11T11:00:14.481Z,101876.69
2022-09-11T11:02:47.061Z,101910.31
2022-09-11T11:05:27.096Z,101910.41
2022-09-11T11:08:58.736Z,101908.03
2022-09-11T11:11:43.288Z,101903.00
2022-09-11T11:14:56.743Z,101906.59
2022-09-11T11:17:37.817Z,101828.53
2022-09-11T11:20:28.133Z,101903.91
2022-09-11T11:23:24.731Z,101842.00
2022-09-11T11:26:04.501Z,101897.25
2022-09-11T11:29:01.043Z,101901.28
2022-09-11T11:32:03.486Z,101890.81
2022-09-11T11:35:07.646Z,101893.34
2022-09-11T11:37:42.659Z,101892.38
2022-09-11T11:40:23.571Z,101900.00
2022-09-11T11:42:58.175Z,101894.28
2022-09-11T11:45:32.092Z,101898.81
2022-09-11T11:48:08.448Z,101883.41
2022-09-11T11:50:42.576Z,101901.56
2022-09-11T11:53:19.906Z,101890.81
2022-09-11T11:56:01.313Z,101892.06
2022-09-11T11:58:47.031Z,101890.41
2022-09-11T12:01:23.821Z,101885.06
2022-09-11T12:04:02.605Z,101873.66
2022-09-11T12:06:31.329Z,101888.47
2022-09-11T12:08:59.929Z,101893.91
2022-09-11T12:11:32.310Z,101880.00
2022-09-11T12:14:01.826Z,101887.81
2022-09-11T12:16:34.203Z,101889.19
2022-09-11T12:19:15.696Z,101881.84
2022-09-11T12:22:07.606Z,101892.88
2022-09-11T12:24:58.816Z,101897.44
2022-09-11T12:27:55.834Z,101885.84
2022-09-11T12:30:30.760Z,101887.38
2022-09-11T12:33:01.359Z,101879.97
2022-09-11T12:35:41.587Z,101873.06
2022-09-11T12:38:23.579Z,101877.28
2022-09-11T12:40:56.397Z,101878.69
2022-09-11T12:43:49.080Z,101868.78
2022-09-11T12:47:07.955Z,101870.44
2022-09-11T12:49:37.520Z,101868.84
2022-09-11T12:52:23.695Z,101863.16
2022-09-11T12:54:53.326Z,101857.69
2022-09-11T12:57:29.043Z,101860.88
2022-09-11T13:00:03.077Z,101860.00
2022-09-11T13:02:36.785Z,101840.16
2022-09-11T13:05:06.798Z,101848.94
2022-09-11T13:07:44.271Z,101748.50
2022-09-11T13:10:33.404Z,101843.25
2022-09-11T13:13:06.620Z,101840.25
2022-09-11T13:15:42.126Z,101834.00
2022-09-11T13:18:31.104Z,101839.91
2022-09-11T13:21:01.697Z,101834.44
2022-09-11T13:23:32.700Z,101829.78
2022-09-11T13:26:02.775Z,101837.78
2022-09-11T13:28:32.211Z,101836.41
2022-09-11T13:31:04.882Z,101836.69
2022-09-11T13:33:33.816Z,101828.81
2022-09-11T13:36:03.731Z,101837.16
2022-09-11T13:38:36.598Z,101835.84
2022-09-11T13:41:08.815Z,101829.59
2022-09-11T13:43:42.416Z,101828.84
2022-09-11T13:46:22.958Z,101822.25
2022-09-11T13:48:56.421Z,101787.03
2022-09-11T13:51:31.121Z,101819.50
2022-09-11T13:54:08.991Z,101813.66
2022-09-11T13:56:48.093Z,101821.19
2022-09-11T13:59:38.489Z,101820.88
2022-09-11T14:02:20.546Z,101819.81
2022-09-11T14:04:52.232Z,101812.69
2022-09-11T14:07:24.683Z,101812.41
2022-09-11T14:10:05.932Z,101817.44
2022-09-11T14:12:36.312Z,101814.06
2022-09-11T14:15:17.377Z,101807.22
2022-09-11T14:17:45.711Z,101803.94
2022-09-11T14:20:20.118Z,101804.25
2022-09-11T14:22:48.720Z,101801.31
2022-09-11T14:25:24.521Z,101793.81
2022-09-11T14:27:53.171Z,101791.91
2022-09-11T14:30:37.135Z,101787.81
2022-09-11T14:33:19.331Z,101792.75
2022-09-11T14:35:48.921Z,101781.09
2022-09-11T14:38:20.627Z,101797.31
2022-09-11T14:40:59.154Z,101798.41
2022-09-11T14:43:32.658Z,101795.19
2022-09-11T14:46:02.851Z,101791.69
2022-09-11T14:48:35.315Z,101791.59
2022-09-11T14:51:12.738Z,101791.31
2022-09-11T14:53:43.421Z,101785.75
2022-09-11T14:56:13.306Z,101787.31
2022-09-11T14:58:41.550Z,101781.47
2022-09-11T15:01:15.473Z,101787.41
2022-09-11T15:03:44.105Z,101775.53
2022-09-11T15:06:19.127Z,101770.78
2022-09-11T15:08:47.610Z,101774.38
2022-09-11T15:11:17.178Z,101770.41
2022-09-11T15:14:04.331Z,101785.19
2022-09-11T15:16:34.561Z,101763.41
2022-09-11T15:19:02.759Z,101768.75
2022-09-11T15:21:35.320Z,101764.84
2022-09-11T15:24:06.972Z,101766.25
2022-09-11T15:26:37.275Z,101764.19
2022-09-11T15:29:09.913Z,101652.09
2022-09-11T15:31:38.200Z,101756.69
2022-09-11T15:34:07.390Z,101747.06
2022-09-11T15:36:38.107Z,101746.84
2022-09-11T15:39:07.006Z,101754.28
2022-09-11T15:41:36.612Z,101749.66
2022-09-11T15:44:11.468Z,101744.53
2022-09-11T15:46:40.255Z,101731.13
2022-09-11T15:49:08.636Z,101746.69
2022-09-11T15:51:37.051Z,101746.50
2022-09-11T15:54:05.815Z,101752.59
2022-09-11T15:56:36.031Z,101744.78
2022-09-11T15:59:05.023Z,101745.06
2022-09-11T16:01:37.423Z,101745.94
2022-09-11T16:04:08.637Z,101746.91
2022-09-11T16:06:39.648Z,101739.38
2022-09-11T16:09:10.655Z,101738.81
2022-09-11T16:11:40.911Z,101743.09
2022-09-11T16:14:09.643Z,101747.66
2022-09-11T16:16:37.968Z,101748.47
2022-09-11T16:19:06.249Z,101747.88
2022-09-11T16:21:34.462Z,101742.81
2022-09-11T16:24:06.828Z,101735.91
2022-09-11T16:26:35.210Z,101733.19
2022-09-11T16:29:08.600Z,101721.72
2022-09-11T16:31:37.217Z,101726.91
2022-09-11T16:34:06.686Z,101724.78
2022-09-11T16:36:38.466Z,101723.56
2022-09-11T16:39:08.923Z,101715.41
2022-09-11T16:41:38.095Z,101707.94
2022-09-11T16:44:10.968Z,101714.00
2022-09-11T16:46:40.572Z,101716.84
2022-09-11T16:49:09.560Z,101695.69
2022-09-11T16:51:37.792Z,101706.28
2022-09-11T16:54:06.083Z,101679.66
2022-09-11T16:56:34.447Z,101708.56
2022-09-11T16:59:02.677Z,101700.41
2022-09-11T17:01:32.264Z,101695.50
2022-09-11T17:04:00.601Z,101692.97
2022-09-11T17:06:29.952Z,101697.81
2022-09-11T17:09:00.336Z,101691.50
2022-09-11T17:11:31.499Z,101682.91
2022-09-11T17:14:02.676Z,101685.38
2022-09-11T17:16:35.688Z,101685.63
2022-09-11T17:19:03.954Z,101684.25
2022-09-11T17:21:35.847Z,101693.22
2022-09-11T17:24:07.422Z,101686.94
2022-09-11T17:26:36.091Z,101682.81
2022-09-11T17:29:05.784Z,101691.66
2022-09-11T17:31:35.398Z,101688.78
2022-09-11T17:34:03.743Z,101689.19
2022-09-11T17:36:32.022Z,101621.75
2022-09-11T17:39:00.956Z,101689.53
2022-09-11T17:41:29.638Z,101688.09
2022-09-11T17:43:58.288Z,101605.78
2022-09-11T17:46:26.627Z,101678.72
2022-09-11T17:48:56.359Z,101674.25
2022-09-11T17:51:27.908Z,101675.31
2022-09-11T17:53:58.657Z,101671.09
2022-09-11T17:56:31.572Z,101673.34
2022-09-11T17:59:00.951Z,101667.28
2022-09-11T18:01:31.647Z,101669.38
2022-09-11T18:04:01.494Z,101662.47
2022-09-11T18:06:34.497Z,101667.72
2022-09-11T18:09:11.824Z,101629.56
2022-09-11T18:11:40.617Z,101675.63
2022-09-11T18:14:09.150Z,101669.94
2022-09-11T18:16:37.669Z,101667.13
2022-09-11T18:19:07.734Z,101672.19
2022-09-11T18:21:38.351Z,101665.16
2022-09-11T18:24:09.863Z,101667.72
2022-09-11T18:26:40.284Z,101661.03
2022-09-11T18:29:12.231Z,101673.25
2022-09-11T18:31:43.148Z,101591.56
2022-09-11T18:34:15.846Z,101664.63
2022-09-11T18:36:45.432Z,101667.66
2022-09-11T18:39:16.768Z,101662.13
2022-09-11T18:41:46.343Z,101667.09
2022-09-11T18:44:19.677Z,101643.53
2022-09-11T18:46:48.902Z,101655.69
2022-09-11T18:49:18.638Z,101666.19
2022-09-11T18:51:46.874Z,101655.69
2022-09-11T18:54:16.588Z,101657.75
2022-09-11T18:56:45.823Z,101665.34
2022-09-11T18:59:15.320Z,101656.44
2022-09-11T19:01:43.751Z,101650.72
2022-09-11T19:04:14.318Z,101653.16
2022-09-11T19:06:44.731Z,101666.41
2022-09-11T19:09:14.088Z,101668.00
2022-09-11T19:11:42.991Z,101661.84
2022-09-11T19:14:13.409Z,101647.84
2022-09-11T19:16:41.886Z,101662.66
2022-09-11T19:19:10.805Z,101665.44
2022-09-11T19:21:39.109Z,101667.50
2022-09-11T19:24:08.994Z,101668.22
2022-09-11T19:26:40.031Z,101665.31
2022-09-11T19:29:09.578Z,101649.59
2022-09-11T19:31:39.426Z,101663.81
2022-09-11T19:34:09.988Z,101670.03
2022-09-11T19:36:38.614Z,101667.41
2022-09-11T19:39:08.733Z,101675.09
2022-09-11T19:41:39.505Z,101670.41
2022-09-11T19:44:12.090Z,101675.06
2022-09-11T19:46:42.924Z,101674.25
2022-09-11T19:49:12.133Z,101672.03
2022-09-11T19:51:45.023Z,101668.50
2022-09-11T19:54:15.683Z,101659.19
2022-09-11T19:56:45.120Z,101668.22
2022-09-11T19:59:14.571Z,101671.91
2022-09-11T20:01:43.529Z,101646.06
2022-09-11T20:04:13.635Z,101675.72
2022-09-11T20:06:41.970Z,101681.63
2022-09-11T20:09:30.531Z,101676.50
2022-09-11T20:12:01.431Z,101671.53
2022-09-11T20:14:31.006Z,101648.09
2022-09-11T20:17:00.986Z,101661.84
2022-09-11T20:19:29.548Z,101662.53
2022-09-11T20:21:57.809Z,101663.19
2022-09-11T20:24:26.277Z,101665.00
2022-09-11T20:26:54.986Z,101664.19
2022-09-11T20:29:25.600Z,101658.00
2022-09-11T20:31:55.179Z,101664.19
2022-09-11T20:34:27.829Z,101655.03
2022-09-11T20:36:57.019Z,101658.47
2022-09-11T20:39:25.318Z,101654.44
2022-09-11T20:41:53.534Z,101661.84
2022-09-11T20:44:21.775Z,101659.56
2022-09-11T20:46:51.473Z,101662.75
2022-09-11T20:49:19.796Z,101659.78
2022-09-11T20:51:48.015Z,101659.41
2022-09-11T20:54:16.510Z,101668.53
2022-09-11T20:56:46.211Z,101655.19
2022-09-11T20:59:14.751Z,101656.38
2022-09-11T21:01:43.183Z,101656.03
2022-09-11T21:04:13.964Z,101649.09
2022-09-11T21:06:42.443Z,101659.34
2022-09-11T21:09:13.375Z,101649.69
2022-09-11T21:11:42.520Z,101636.31
2022-09-11T21:14:11.943Z,101646.63
2022-09-11T21:16:40.287Z,101641.53
2022-09-11T21:19:09.992Z,101634.31
2022-09-11T21:21:40.114Z,101640.72
2022-09-11T21:24:12.464Z,101630.56
2022-09-11T21:26:40.837Z,101564.13
2022-09-11T21:29:12.239Z,101634.94
2022-09-11T21:31:40.527Z,101640.75
2022-09-11T21:34:08.971Z,101636.81
2022-09-11T21:36:37.910Z,101643.38
2022-09-11T21:39:07.646Z,101635.69
2022-09-11T21:41:35.944Z,101642.69
2022-09-11T21:44:04.392Z,101640.63
2022-09-11T21:46:32.738Z,101636.22
2022-09-11T21:49:01.662Z,101636.69
2022-09-11T21:51:30.011Z,101644.91
2022-09-11T21:54:01.807Z,101644.06
2022-09-11T21:56:33.917Z,101638.97
2022-09-11T21:59:02.536Z,101640.91
2022-09-11T22:01:32.061Z,101641.88
2022-09-11T22:04:01.265Z,101647.41
2022-09-11T22:06:30.734Z,101631.09
2022-09-11T22:08:59.696Z,101630.50
2022-09-11T22:11:28.535Z,101636.22
2022-09-11T22:13:58.133Z,101632.88
2022-09-11T22:16:26.510Z,101636.84
2022-09-11T22:18:56.889Z,101634.50
2022-09-11T22:21:25.215Z,101631.19
2022-09-11T22:23:53.430Z,101631.34
2022-09-11T22:26:23.827Z,101627.00
2022-09-11T22:28:52.994Z,101622.03
2022-09-11T22:31:26.046Z,101630.03
2022-09-11T22:33:55.299Z,101627.34
2022-09-11T22:36:27.280Z,101614.28
2022-09-11T22:38:56.098Z,101614.34
2022-09-11T22:41:24.611Z,101596.75
2022-09-11T22:43:53.511Z,101611.44
2022-09-11T22:46:23.885Z,101589.25
2022-09-11T22:48:52.122Z,101604.06
2022-09-11T22:51:20.440Z,101607.81
2022-09-11T22:53:48.718Z,101601.72
2022-09-11T22:56:17.216Z,101601.50
2022-09-11T22:58:45.664Z,101601.56
2022-09-11T23:01:21.084Z,101602.28
2022-09-11T23:03:52.058Z,101591.13
2022-09-11T23:06:38.728Z,101596.63
2022-09-11T23:09:09.163Z,101587.25
2022-09-11T23:11:37.536Z,101559.19
2022-09-11T23:14:09.321Z,101590.97
2022-09-11T23:16:41.786Z,101584.19
2022-09-11T23:19:14.928Z,101580.69
2022-09-11T23:21:43.626Z,101584.41
2022-09-11T23:24:14.222Z,101579.00
2022-09-11T23:26:43.336Z,101589.72
2022-09-11T23:29:12.288Z,101589.84
2022-09-11T23:31:41.364Z,101578.81
2022-09-11T23:34:14.871Z,101570.31
2022-09-11T23:36:44.136Z,101571.19
2022-09-11T23:39:12.635Z,101571.78
2022-09-11T23:41:41.001Z,101560.50
2022-09-11T23:44:10.091Z,101564.94
2022-09-11T23:46:38.623Z,101567.41
2022-09-11T23:49:07.408Z,101568.13
2022-09-11T23:51:36.964Z,101564.50
2022-09-11T23:54:05.398Z,101562.03
2022-09-11T23:56:33.703Z,101562.19
2022-09-11T23:59:01.953Z,101566.97
